Latest Weather Observations for Mullion

IDN60901

Issued at 8:11 am EDT Wednesday 23 October 2019 (issued every 10 minutes, with the page automatically refreshed every 10 minutes)

About weather observations | Map of Canberra area stations | Latest observations for Canberra area | Other Formats
Station Details ID: 250070 Name: MULLION (PCS) Lat: -35.11 Lon: 148.85 Height: 750.0 m
Data from the previous 72 hours. | See also: Recent months for locations in Aust Capital Territory
Date/Time
EDT
Temp
°C
App
Temp
°C
Dew
Point
°C
Rel
Hum
%
Delta-T
°C
Wind Press
QNH
hPa
Press
MSL
hPa
Rain since
9am
mm
Dir  Spd
km/h
Gust
km/h
Spd
kts
Gust
kts
23/08:00am 12.2 10.0 9.5 83 1.4 SE 11 13 6 7 1025.4 - 0.0
23/07:50am 11.9 9.2 9.1 83 1.5 SE 13 13 7 7 1025.4 - 0.0
23/07:40am 11.7 8.6 9.0 83 1.4 SE 15 15 8 8 1025.4 - 0.0
23/07:30am 11.4 8.0 9.1 86 1.2 SE 17 17 9 9 1025.3 - 0.0
23/07:20am 11.3 7.5 9.1 86 1.1 SE 19 20 10 11 1025.3 - 0.0
23/07:10am 11.1 7.3 9.0 87 1.1 SE 19 20 10 11 1025.2 - 0.0
23/07:00am 11.1 7.3 8.9 86 1.1 SE 19 20 10 11 1025.1 - 0.0
23/06:50am 10.5 6.7 8.9 90 0.8 SSE 19 20 10 11 1025.1 - 0.0
23/06:40am 10.2 6.3 8.8 91 0.7 SSE 19 19 10 10 1025.0 - 0.0
23/06:30am 10.4 6.6 8.9 90 0.8 SSE 19 20 10 11 1024.8 - 0.0
23/06:20am 10.5 7.1 9.0 90 0.8 SE 17 17 9 9 1024.8 - 0.0
23/06:10am 10.7 7.3 9.1 90 0.8 SSE 17 17 9 9 1024.9 - 0.0
23/06:00am 10.7 7.3 9.1 90 0.8 SSE 17 19 9 10 1024.9 - 0.0
23/05:50am 10.6 7.2 9.1 90 0.8 SSE 17 17 9 9 1024.8 - 0.0
23/05:40am 10.5 6.7 9.1 91 0.7 SSE 19 19 10 10 1024.6 - 0.0
23/05:30am 10.5 6.7 9.1 91 0.7 SSE 19 19 10 10 1024.5 - 0.0
23/05:20am 10.7 6.9 9.2 90 0.8 SSE 19 20 10 11 1024.6 - 0.0
23/05:10am 10.9 7.1 9.2 89 0.9 SSE 19 20 10 11 1024.5 - 0.0
23/05:00am 10.9 7.1 9.2 89 0.9 SSE 19 20 10 11 1024.5 - 0.0
23/04:50am 10.8 6.8 9.2 90 0.8 SSE 20 20 11 11 1024.4 - 0.0
23/04:40am 10.7 6.8 9.3 91 0.7 SSE 20 22 11 12 1024.5 - 0.0
23/04:30am 10.5 6.2 9.3 92 0.6 SSE 22 22 12 12 1024.4 - 0.0
23/04:20am 10.5 6.2 9.3 92 0.6 SSE 22 24 12 13 1024.5 - 0.0
23/04:10am 10.6 6.3 9.4 92 0.6 SSE 22 24 12 13 1024.5 - 0.0
23/04:00am 10.6 6.3 9.4 92 0.6 SSE 22 24 12 13 1024.6 - 0.0
23/03:50am 10.7 6.4 9.4 92 0.7 SSE 22 22 12 12 1024.6 - 0.0
23/03:40am 10.8 6.9 9.5 92 0.7 SSE 20 22 11 12 1024.8 - 0.0
23/03:30am 10.8 6.5 9.5 92 0.7 SSE 22 24 12 13 1024.8 - 0.0
23/03:20am 10.9 6.6 9.4 90 0.8 SSE 22 24 12 13 1024.8 - 0.0
23/03:00am 10.9 6.6 9.5 91 0.7 SSE 22 24 12 13 1024.9 - 0.0
23/02:50am 10.9 6.6 9.5 91 0.7 SSE 22 22 12 12 1025.0 - 0.0
23/02:40am 11.2 7.0 9.6 90 0.8 SSE 22 24 12 13 1025.1 - 0.0
23/02:30am 11.2 6.6 9.7 90 0.8 SSE 24 24 13 13 1025.1 - 0.0
23/02:20am 11.2 6.6 9.7 90 0.8 SSE 24 24 13 13 1025.2 - 0.0
23/02:10am 11.2 6.6 9.6 90 0.8 SSE 24 24 13 13 1025.2 - 0.0
23/02:00am 11.3 6.7 9.7 90 0.8 SSE 24 24 13 13 1025.3 - 0.0
23/01:50am 11.3 6.7 9.6 89 0.9 SSE 24 26 13 14 1025.3 - 0.0
23/01:40am 11.4 6.4 9.6 89 0.9 SSE 26 28 14 15 1025.4 - 0.0
23/01:30am 11.5 6.5 9.7 89 0.9 SSE 26 26 14 14 1025.5 - 0.0
23/01:20am 11.5 6.5 9.7 89 0.9 SSE 26 28 14 15 1025.6 - 0.0
23/01:10am 11.6 6.6 9.7 88 1.0 SSE 26 26 14 14 1025.8 - 0.0
23/01:00am 11.7 6.7 9.7 87 1.1 SSE 26 28 14 15 1025.9 - 0.0
23/12:50am 11.8 6.8 9.7 87 1.1 SSE 26 28 14 15 1026.1 - 0.0
23/12:40am 12.0 6.7 9.7 86 1.2 SSE 28 30 15 16 1026.2 - 0.0
23/12:30am 11.9 6.5 9.6 86 1.2 SSE 28 28 15 15 1026.2 - 0.0
23/12:20am 12.0 6.6 9.6 85 1.3 SSE 28 30 15 16 1026.4 - 0.0
23/12:10am 12.2 6.5 9.7 85 1.3 SSE 30 30 16 16 1026.3 - 0.0
23/12:00am 12.2 6.8 9.6 84 1.4 SSE 28 30 15 16 1026.3 - 0.0
 
Date/Time
EDT
Temp
°C
App
Temp
°C
Dew
Point
°C
Rel
Hum
%
Delta-T
°C
Wind Press
QNH
hPa
Press
MSL
hPa
Rain since
9am
mm
Dir  Spd
km/h
Gust
km/h
Spd
kts
Gust
kts
22/11:50pm 12.4 7.4 9.7 83 1.4 SSE 26 28 14 15 1026.4 - 0.0
22/11:40pm 12.3 7.3 9.6 83 1.4 SSE 26 28 14 15 1026.4 - 0.0
22/11:30pm 12.6 7.6 9.5 81 1.6 SSE 26 28 14 15 1026.3 - 0.0
22/11:20pm 12.7 7.7 9.4 80 1.7 SSE 26 28 14 15 1026.4 - 0.0
22/11:10pm 13.1 7.6 9.3 78 2.0 SE 28 30 15 16 1026.4 - 0.0
22/11:00pm 13.4 7.6 9.4 77 2.1 SE 30 32 16 17 1026.2 - 0.0
22/10:50pm 13.5 7.7 9.3 76 2.2 SE 30 32 16 17 1026.2 - 0.0
22/10:40pm 13.7 7.5 9.2 74 2.4 SE 32 33 17 18 1026.0 - 0.0
22/10:30pm 13.7 7.8 9.1 74 2.4 SE 30 32 16 17 1026.0 - 0.0
22/10:20pm 14.1 7.8 8.9 71 2.7 SE 32 32 17 17 1025.9 - 0.0
22/10:10pm 14.4 8.4 8.8 69 3.0 SE 30 32 16 17 1025.9 - 0.0
22/10:00pm 14.6 8.7 8.9 68 3.0 SE 30 32 16 17 1025.9 - 0.0
22/09:50pm 15.1 9.6 9.0 67 3.2 SSE 28 30 15 16 1025.9 - 0.0
22/09:40pm 15.5 9.5 8.8 64 3.6 SE 30 32 16 17 1025.7 - 0.0
22/09:30pm 15.7 10.2 9.0 64 3.6 SE 28 28 15 15 1025.7 - 0.0
22/09:20pm 16.3 11.1 8.9 61 4.0 SE 26 28 14 15 1025.5 - 0.0
22/09:10pm 16.6 11.4 8.9 60 4.1 SE 26 28 14 15 1025.4 - 0.0
22/09:00pm 17.1 13.1 8.9 58 4.4 SE 20 22 11 12 1025.4 - 0.0
22/08:50pm 17.7 14.0 7.8 52 5.2 SSE 17 20 9 11 1025.3 - 0.0
22/08:40pm 18.2 12.8 6.2 45 6.2 E 24 28 13 15 1025.2 - 0.0
22/08:30pm 20.4 16.7 4.7 35 7.9 SW 13 24 7 13 1024.8 - 0.0
22/08:20pm 21.2 16.3 1.7 27 9.4 W 17 20 9 11 1024.6 - 0.0
22/08:10pm 21.3 15.8 2.0 28 9.3 W 20 20 11 11 1024.4 - 0.0
22/08:00pm 21.4 15.6 2.1 28 9.4 W 22 24 12 13 1024.2 - 0.0
22/07:50pm 21.4 16.2 2.3 28 9.3 W 19 22 10 12 1024.1 - 0.0
22/07:40pm 21.6 16.1 2.1 27 9.5 W 20 24 11 13 1024.1 - 0.0
22/07:30pm 21.7 16.5 2.3 27 9.5 W 19 22 10 12 1024.0 - 0.0
22/07:20pm 22.0 16.6 2.3 27 9.6 W 20 24 11 13 1023.9 - 0.0
22/07:10pm 22.6 16.4 2.2 26 10.0 W 24 28 13 15 1023.9 - 0.0
22/07:00pm 22.9 16.7 2.1 25 10.2 W 24 28 13 15 1023.7 - 0.0
22/06:50pm 23.2 16.2 2.0 25 10.4 W 28 32 15 17 1023.7 - 0.0
22/06:40pm 23.5 17.6 1.8 24 10.6 W 22 24 12 13 1023.5 - 0.0
22/06:30pm 23.7 17.7 1.3 23 10.9 W 22 30 12 16 1023.6 - 0.0
22/06:20pm 23.9 17.5 1.2 22 11.0 WNW 24 30 13 16 1023.5 - 0.0
22/06:10pm 24.0 17.6 1.0 22 11.1 W 24 30 13 16 1023.5 - 0.0
22/06:00pm 23.9 16.4 0.9 22 11.1 W 30 33 16 18 1023.4 - 0.0
22/05:50pm 23.9 16.3 0.7 21 11.1 WNW 30 39 16 21 1023.2 - 0.0
22/05:40pm 23.9 16.0 0.8 22 11.1 WNW 32 35 17 19 1023.2 - 0.0
22/05:30pm 24.2 17.1 1.4 22 11.1 WNW 28 35 15 19 1023.3 - 0.0
22/05:20pm 24.3 16.4 1.3 22 11.2 W 32 33 17 18 1023.2 - 0.0
22/05:10pm 24.0 16.0 1.8 23 10.9 WNW 33 39 18 21 1023.2 - 0.0
22/05:00pm 24.0 16.1 2.1 24 10.8 WNW 33 37 18 20 1023.1 - 0.0
22/04:50pm 24.5 17.9 2.1 23 11.1 W 26 30 14 16 1023.4 - 0.0
22/04:40pm 24.0 16.0 1.7 23 10.9 W 33 39 18 21 1023.3 - 0.0
22/04:30pm 24.1 16.4 2.1 23 10.9 WNW 32 35 17 19 1023.3 - 0.0
22/04:20pm 24.0 16.3 2.1 24 10.8 WNW 32 39 17 21 1023.2 - 0.0
22/04:10pm 24.2 16.5 2.3 24 10.9 WNW 32 37 17 20 1023.4 - 0.0
22/04:00pm 24.5 17.5 1.8 22 11.2 W 28 37 15 20 1023.4 - 0.0
22/03:50pm 24.6 18.3 1.6 22 11.3 WNW 24 32 13 17 1023.7 - 0.0
22/03:40pm 24.2 17.2 1.9 23 11.0 WNW 28 35 15 19 1023.7 - 0.0
22/03:30pm 24.6 18.2 1.1 21 11.4 W 24 32 13 17 1023.7 - 0.0
22/03:20pm 24.6 17.9 1.7 22 11.3 WNW 26 28 14 15 1023.9 - 0.0
22/03:10pm 24.3 17.9 1.1 22 11.3 W 24 39 13 21 1024.1 - 0.0
22/03:00pm 24.0 17.2 0.6 21 11.2 W 26 33 14 18 1024.2 - 0.0
22/02:50pm 23.8 16.1 -0.2 20 11.3 W 30 39 16 21 1024.3 - 0.0
22/02:40pm 24.0 16.3 0.0 20 11.4 WNW 30 35 16 19 1024.5 - 0.0
22/02:30pm 23.7 16.5 0.6 22 11.1 WNW 28 35 15 19 1024.6 - 0.0
22/02:20pm 23.4 15.1 -0.4 20 11.2 NW 33 39 18 21 1024.7 - 0.0
22/02:10pm 23.3 15.1 0.1 21 11.0 WNW 33 37 18 20 1024.9 - 0.0
22/02:00pm 23.0 15.0 0.2 22 10.8 WNW 32 37 17 20 1024.9 - 0.0
22/01:50pm 23.0 14.6 -0.7 20 11.0 WNW 33 39 18 21 1025.1 - 0.0
22/01:40pm 22.9 14.3 -2.6 18 11.4 WNW 33 39 18 21 1025.2 - 0.0
22/01:30pm 23.0 14.2 -1.3 20 11.2 WNW 35 37 19 20 1025.4 - 0.0
22/01:20pm 22.8 14.1 -0.7 21 10.9 WNW 35 39 19 21 1025.5 - 0.0
22/01:10pm 22.9 14.6 -2.0 19 11.3 WNW 32 39 17 21 1025.5 - 0.0
22/01:00pm 23.2 15.7 1.1 23 10.6 WNW 30 37 16 20 1025.7 - 0.0
22/12:50pm 22.5 15.8 1.3 24 10.2 WNW 26 33 14 18 1025.8 - 0.0
22/12:40pm 23.0 17.4 3.4 27 9.8 WNW 22 26 12 14 1026.0 - 0.0
22/12:30pm 22.4 15.9 2.4 27 9.8 WNW 26 32 14 17 1026.2 - 0.0
22/12:20pm 21.7 15.6 4.7 33 8.7 WNW 26 26 14 14 1026.2 - 0.0
22/12:10pm 21.7 15.2 4.8 33 8.6 WNW 28 32 15 17 1026.4 - 0.0
22/12:00pm 21.3 14.8 4.6 33 8.5 WNW 28 37 15 20 1026.5 - 0.0
22/11:50am 20.9 13.6 4.5 34 8.3 WNW 32 39 17 21 1026.6 - 0.0
22/11:40am 20.8 14.8 5.4 36 7.9 NNW 26 35 14 19 1026.5 - 0.0
22/11:30am 20.6 15.1 6.1 39 7.5 NNW 24 30 13 16 1026.7 - 0.0
22/11:20am 20.1 15.5 6.7 41 7.0 NNW 20 26 11 14 1026.9 - 0.0
22/11:00am 18.9 14.6 7.2 46 6.1 NNW 19 20 10 11 1027.4 - 0.0
22/10:50am 18.2 14.3 7.1 48 5.8 NW 17 19 9 10 1027.6 - 0.0
22/10:40am 17.8 14.0 7.4 50 5.4 NW 17 20 9 11 1027.6 - 0.0
22/10:30am 17.2 13.7 7.1 51 5.2 NW 15 17 8 9 1027.7 - 0.0
22/10:20am 16.6 13.1 7.4 54 4.8 NW 15 17 8 9 1027.8 - 0.0
22/10:10am 16.2 13.1 7.4 56 4.6 NNW 13 15 7 8 1027.9 - 0.0
22/10:00am 15.8 13.2 7.9 59 4.1 NW 11 13 6 7 1027.9 - 0.0
22/09:50am 15.8 13.2 7.6 58 4.3 NW 11 13 6 7 1027.9 - 0.0
22/09:40am 15.4 12.8 7.9 61 3.9 NW 11 13 6 7 1027.9 - 0.0
22/09:30am 14.8 12.6 7.7 62 3.7 NW 9 11 5 6 1027.9 - 0.0
22/09:20am 14.7 12.7 7.3 61 3.8 NW 7 9 4 5 1027.9 - 0.0
22/09:10am 14.4 12.4 7.3 62 3.6 NW 7 7 4 4 1027.8 - 0.0
22/09:00am 14.2 12.3 7.4 63 3.5 NW 7 7 4 4 1027.8 - 0.0
22/08:50am 14.5 13.2 7.5 63 3.6 NW 4 4 2 2 1027.8 - 0.0
22/08:40am 15.0 14.4 7.3 60 4.0 CALM 0 2 0 1 1027.7 - 0.0
22/08:30am 14.5 13.0 6.6 59 4.0 ESE 4 4 2 2 1027.8 - 0.0
22/08:20am 13.6 11.6 6.1 60 3.7 SE 6 7 3 4 1027.7 - 0.0
22/08:10am 13.1 11.1 7.2 67 3.0 SE 7 7 4 4 1027.6 - 0.0
22/08:00am 12.6 10.5 6.6 67 3.0 SSE 7 9 4 5 1027.5 - 0.0
22/07:50am 12.1 9.2 6.6 69 2.7 SSE 11 13 6 7 1027.5 - 0.0
22/07:40am 11.9 8.3 6.6 70 2.6 SE 15 15 8 8 1027.3 - 0.0
22/07:30am 11.7 8.1 6.6 71 2.5 SE 15 17 8 9 1027.2 - 0.0
22/07:20am 11.7 8.5 6.7 71 2.5 SE 13 13 7 7 1027.2 - 0.0
22/07:10am 11.3 8.0 6.4 72 2.4 SE 13 13 7 7 1027.1 - 0.0
22/07:00am 11.0 7.7 6.6 74 2.2 SE 13 13 7 7 1027.0 - 0.0
22/06:50am 10.8 7.5 6.6 75 2.1 SE 13 13 7 7 1026.8 - 0.0
22/06:40am 10.9 7.7 6.8 76 2.0 SE 13 13 7 7 1026.8 - 0.0
22/06:30am 10.8 7.5 6.6 75 2.1 SE 13 13 7 7 1026.7 - 0.0
22/06:20am 10.9 7.7 6.8 76 2.0 SE 13 15 7 8 1026.6 - 0.0
22/06:10am 11.0 7.4 6.6 74 2.2 SSE 15 17 8 9 1026.5 - 0.0
22/06:00am 11.1 7.1 6.6 74 2.2 SSE 17 17 9 9 1026.5 - 0.0
22/05:50am 11.1 7.1 6.6 74 2.2 SE 17 17 9 9 1026.3 - 0.0
22/05:40am 11.1 7.4 6.4 73 2.3 SE 15 15 8 8 1026.2 - 0.0
22/05:30am 11.1 7.4 6.4 73 2.3 SSE 15 15 8 8 1026.2 - 0.0
22/05:20am 11.2 7.5 6.2 71 2.4 SSE 15 17 8 9 1026.1 - 0.0
22/05:10am 11.1 6.6 6.3 72 2.3 SSE 19 19 10 10 1026.0 - 0.0
22/05:00am 11.2 6.8 6.6 73 2.3 SSE 19 20 10 11 1026.0 - 0.0
22/04:50am 11.0 6.4 6.4 73 2.3 SSE 20 20 11 11 1025.9 - 0.0
22/04:40am 11.0 6.6 6.7 75 2.1 SE 19 20 10 11 1025.9 - 0.0
22/04:30am 11.1 6.8 7.0 76 2.0 SSE 19 20 10 11 1025.9 - 0.0
22/04:20am 11.1 6.8 6.8 75 2.1 SSE 19 20 10 11 1025.9 - 0.0
22/04:10am 11.1 6.7 6.7 74 2.2 SSE 19 20 10 11 1025.9 - 0.0
22/04:00am 11.0 6.7 7.0 76 2.0 SSE 19 20 10 11 1025.9 - 0.0
22/03:50am 11.0 6.1 7.0 76 2.0 SSE 22 24 12 13 1025.9 - 0.0
22/03:40am 11.2 6.3 7.1 76 2.0 SSE 22 22 12 12 1026.0 - 0.0
22/03:30am 11.4 6.5 7.1 75 2.1 SSE 22 24 12 13 1026.1 - 0.0
22/03:20am 11.3 6.9 7.2 76 2.0 SSE 20 22 11 12 1026.2 - 0.0
22/03:00am 11.6 7.2 7.6 76 2.0 SSE 20 22 11 12 1026.4 - 0.0
22/02:50am 11.7 7.3 7.5 75 2.1 SSE 20 20 11 11 1026.5 - 0.0
22/02:40am 11.6 6.8 7.5 76 2.1 SSE 22 24 12 13 1026.5 - 0.0
22/02:30am 11.7 6.8 7.1 73 2.3 SSE 22 24 12 13 1026.5 - 0.0
22/02:20am 11.6 6.8 7.3 75 2.2 SSE 22 22 12 12 1026.5 - 0.0
22/02:10am 11.6 7.2 7.4 75 2.1 SSE 20 22 11 12 1026.5 - 0.0
22/02:00am 11.5 6.8 7.7 77 1.9 SSE 22 24 12 13 1026.8 - 0.0
22/01:50am 11.6 6.9 7.6 76 2.0 SSE 22 24 12 13 1026.7 - 0.0
22/01:40am 11.6 6.9 7.7 77 2.0 SSE 22 24 12 13 1026.9 - 0.0
22/01:30am 11.8 6.7 7.6 75 2.1 SSE 24 24 13 13 1027.0 - 0.0
22/01:20am 12.1 7.4 7.6 74 2.3 SE 22 24 12 13 1027.0 - 0.0
22/01:10am 12.5 8.3 7.6 72 2.5 SSE 19 19 10 10 1027.2 - 0.0
22/01:00am 12.5 8.3 7.6 72 2.5 SSE 19 20 10 11 1027.2 - 0.0
22/12:50am 12.4 8.2 7.6 72 2.4 SSE 19 20 10 11 1027.3 - 0.0
22/12:40am 12.4 8.0 7.5 72 2.5 SSE 20 22 11 12 1027.3 - 0.0
22/12:30am 12.5 8.1 7.6 72 2.5 SSE 20 22 11 12 1027.4 - 0.0
22/12:20am 12.7 8.3 7.6 71 2.6 SSE 20 22 11 12 1027.4 - 0.0
22/12:10am 12.8 8.4 7.6 70 2.6 SSE 20 22 11 12 1027.4 - 0.0
22/12:00am 13.0 8.3 7.7 70 2.7 SSE 22 22 12 12 1027.5 - 0.0
 
Date/Time
EDT
Temp
°C
App
Temp
°C
Dew
Point
°C
Rel
Hum
%
Delta-T
°C
Wind Press
QNH
hPa
Press
MSL
hPa
Rain since
9am
mm
Dir  Spd
km/h
Gust
km/h
Spd
kts
Gust
kts
21/11:50pm 13.1 8.8 7.7 70 2.8 SSE 20 22 11 12 1027.2 - 0.0
21/11:40pm 13.2 8.5 7.8 70 2.8 SSE 22 22 12 12 1027.3 - 0.0
21/11:30pm 13.4 9.1 7.7 68 2.9 SSE 20 24 11 13 1027.3 - 0.0
21/11:20pm 13.5 9.1 7.6 67 3.0 SSE 20 22 11 12 1027.3 - 0.0
21/11:10pm 13.7 9.0 7.7 67 3.1 SSE 22 24 12 13 1027.3 - 0.0
21/11:00pm 13.8 9.0 7.5 66 3.2 SSE 22 22 12 12 1027.3 - 0.0
21/10:50pm 13.9 9.2 7.6 66 3.2 SE 22 24 12 13 1027.2 - 0.0
21/10:40pm 14.2 10.0 7.6 64 3.4 SE 19 20 10 11 1027.3 - 0.0
21/10:30pm 14.4 10.0 7.6 63 3.5 SE 20 22 11 12 1027.4 - 0.0
21/10:20pm 14.7 10.3 7.5 62 3.7 SE 20 20 11 11 1027.4 - 0.0
21/10:10pm 15.1 10.3 7.5 60 3.9 SE 22 24 12 13 1027.3 - 0.0
21/10:00pm 15.3 10.9 7.6 60 4.0 SE 20 22 11 12 1027.1 - 0.0
21/09:50pm 15.5 11.7 7.4 58 4.2 SE 17 20 9 11 1027.2 - 0.0
21/09:40pm 16.2 12.3 6.9 54 4.8 SE 17 19 9 10 1027.2 - 0.0
21/09:30pm 16.7 12.2 6.3 50 5.3 ESE 19 20 10 11 1027.2 - 0.0
21/09:20pm 17.0 12.9 4.3 43 6.2 SE 15 17 8 9 1027.0 - 0.0
21/09:10pm 17.6 13.0 3.7 39 6.8 ESE 17 20 9 11 1027.0 - 0.0
21/09:00pm 19.0 16.0 3.9 36 7.4 SSW 9 20 5 11 1026.7 - 0.0
21/08:50pm 19.5 15.5 2.6 32 8.2 W 13 17 7 9 1026.7 - 0.0
21/08:40pm 19.5 14.4 2.9 33 8.1 W 19 22 10 12 1026.5 - 0.0
21/08:30pm 19.3 13.9 2.5 32 8.1 W 20 24 11 13 1026.3 - 0.0
21/08:20pm 19.3 14.0 3.0 34 7.9 W 20 22 11 12 1026.2 - 0.0
21/08:10pm 19.4 13.7 2.9 33 8.0 W 22 24 12 13 1026.2 - 0.0
21/08:00pm 19.5 14.2 3.1 33 8.0 W 20 22 11 12 1026.2 - 0.0
21/07:50pm 19.7 14.0 3.0 33 8.1 W 22 26 12 14 1026.0 - 0.0
21/07:40pm 19.8 14.5 3.1 33 8.2 W 20 22 11 12 1026.0 - 0.0
21/07:30pm 20.1 14.8 2.9 32 8.4 W 20 22 11 12 1025.9 - 0.0
21/07:20pm 20.4 14.7 3.1 32 8.5 W 22 26 12 14 1025.9 - 0.0
21/07:10pm 20.9 15.3 3.4 31 8.7 W 22 24 12 13 1025.8 - 0.0
21/07:00pm 21.3 16.3 3.4 30 8.9 W 19 22 10 12 1025.8 - 0.0
21/06:50pm 21.6 16.4 3.6 30 9.0 W 20 24 11 13 1025.8 - 0.0
21/06:40pm 21.8 16.3 3.8 30 9.0 WNW 22 24 12 13 1025.6 - 0.0
21/06:30pm 21.9 16.0 3.7 30 9.1 WNW 24 28 13 15 1025.6 - 0.0
21/06:20pm 21.9 16.0 4.0 31 9.0 WNW 24 28 13 15 1025.5 - 0.0
21/06:10pm 22.1 16.6 4.2 31 9.1 W 22 28 12 15 1025.4 - 0.0
21/06:00pm 22.1 15.9 4.3 31 9.0 W 26 28 14 15 1025.3 - 0.0
21/05:50pm 22.6 17.7 4.2 30 9.3 WNW 19 24 10 13 1025.4 - 0.0
21/05:40pm 22.3 17.2 4.2 30 9.2 NW 20 22 11 12 1025.3 - 0.0
21/05:30pm 22.5 16.9 3.5 29 9.5 NW 22 28 12 15 1025.3 - 0.0
21/05:20pm 22.9 17.9 3.5 28 9.8 NW 19 24 10 13 1025.2 - 0.0
21/05:10pm 23.1 18.4 3.4 27 9.9 NW 17 22 9 12 1025.2 - 0.0
21/05:00pm 23.0 19.4 3.1 27 9.9 NW 11 22 6 12 1025.3 - 0.0
21/04:50pm 23.1 19.6 3.3 27 9.9 NNW 11 22 6 12 1025.2 - 0.0
21/04:40pm 22.8 18.1 3.3 28 9.8 NW 17 22 9 12 1025.1 - 0.0
21/04:30pm 22.9 20.1 3.4 28 9.8 N 7 13 4 7 1025.3 - 0.0
21/04:20pm 22.6 17.9 2.9 27 9.8 NW 17 28 9 15 1025.4 - 0.0
21/04:10pm 22.8 17.8 3.4 28 9.7 WNW 19 22 10 12 1025.4 - 0.0
21/04:00pm 22.9 18.2 3.1 27 9.9 NW 17 20 9 11 1025.4 - 0.0
21/03:50pm 22.9 17.8 3.2 27 9.8 N 19 22 10 12 1025.3 - 0.0
21/03:40pm 22.5 17.7 2.8 27 9.7 NNW 17 24 9 13 1025.4 - 0.0
21/03:30pm 22.6 17.2 2.7 27 9.8 NW 20 26 11 14 1025.5 - 0.0
21/03:20pm 22.4 18.5 3.5 29 9.5 NNW 13 24 7 13 1025.5 - 0.0
21/03:10pm 22.2 17.5 3.0 28 9.5 NNW 17 24 9 13 1025.7 - 0.0
21/03:00pm 22.3 17.2 3.1 28 9.5 NW 19 28 10 15 1025.8 - 0.0
21/02:50pm 22.5 17.8 3.0 28 9.7 NW 17 22 9 12 1025.8 - 0.0
21/02:40pm 22.3 17.2 3.2 28 9.5 NW 19 24 10 13 1025.9 - 0.0
21/02:30pm 21.8 16.7 3.9 31 9.0 NNW 20 26 11 14 1026.1 - 0.0
21/02:20pm 21.7 15.3 3.2 29 9.2 NNW 26 32 14 17 1026.0 - 0.0
21/02:10pm 21.6 16.0 3.3 30 9.1 NNW 22 26 12 14 1026.3 - 0.0
21/02:00pm 22.3 17.3 3.6 29 9.4 NNW 19 24 10 13 1026.4 - 0.0
21/01:50pm 21.1 15.5 3.4 31 8.8 NNW 22 30 12 16 1026.4 - 0.0
21/01:40pm 20.9 15.3 3.7 32 8.6 NW 22 28 12 15 1026.5 - 0.0
21/01:30pm 21.0 15.5 4.1 33 8.5 NW 22 28 12 15 1026.6 - 0.0
21/01:20pm 21.8 16.6 3.6 30 9.1 NW 20 24 11 13 1026.6 - 0.0
21/01:10pm 20.7 15.5 3.8 33 8.4 NW 20 28 11 15 1026.6 - 0.0
21/01:00pm 20.4 15.2 3.6 33 8.3 NW 20 30 11 16 1026.8 - 0.0
21/12:50pm 20.2 14.6 3.2 32 8.3 NNW 22 28 12 15 1027.0 - 0.0
21/12:40pm 19.8 14.5 2.8 32 8.3 NNW 20 26 11 14 1027.2 - 0.0
21/12:30pm 19.4 14.0 2.6 32 8.1 NNW 20 24 11 13 1027.3 - 0.0
21/12:20pm 19.5 14.8 3.0 33 8.0 NW 17 24 9 13 1027.5 - 0.0
21/12:10pm 18.6 13.8 2.4 34 7.7 NNW 17 22 9 12 1027.7 - 0.0
21/12:00pm 18.4 14.1 3.1 36 7.4 NW 15 19 8 10 1027.8 - 0.0
21/11:50am 18.3 14.0 3.0 36 7.4 NW 15 19 8 10 1027.9 - 0.0
21/11:40am 18.4 14.4 3.0 36 7.4 NNW 13 19 7 10 1028.1 - 0.0
21/11:30am 18.4 14.4 2.6 35 7.6 NNW 13 17 7 9 1028.3 - 0.0
21/11:20am 17.8 14.7 3.8 39 6.8 NNW 9 15 5 8 1028.3 - 0.0
21/11:10am 18.0 15.4 4.3 40 6.8 N 7 9 4 5 1028.5 - 0.0
21/11:00am 18.4 15.8 3.4 37 7.3 NNE 6 9 3 5 1028.6 - 0.0
21/10:50am 18.3 15.6 2.7 35 7.5 NE 6 9 3 5 1028.6 - 0.0
21/10:40am 17.8 15.0 3.3 38 7.0 NE 7 11 4 6 1028.7 - 0.0
21/10:30am 17.2 15.1 3.7 40 6.5 NNE 4 9 2 5 1028.8 - 0.0
21/10:20am 16.6 14.1 3.8 42 6.2 NNE 6 7 3 4 1028.8 - 0.0
21/10:10am 16.7 14.3 4.3 43 6.1 ENE 6 7 3 4 1028.8 - 0.0
21/10:00am 16.1 13.7 4.1 45 5.8 ENE 6 6 3 3 1028.9 - 0.0
21/09:50am 14.9 12.2 3.8 47 5.3 E 7 9 4 5 1028.9 - 0.0
21/09:40am 13.8 11.1 3.8 51 4.7 SE 7 9 4 5 1028.9 - 0.0
21/09:30am 13.3 10.3 4.1 53 4.4 ESE 9 11 5 6 1028.9 - 0.0
21/09:20am 12.8 9.7 3.8 54 4.2 ESE 9 11 5 6 1028.9 - 0.0
21/09:10am 12.3 9.2 3.7 55 4.0 SE 9 11 5 6 1028.8 - 0.0
21/09:00am 11.8 8.3 3.3 56 3.9 SE 11 11 6 6 1028.7 - 0.0
21/08:50am 11.6 8.2 4.0 59 3.6 SE 11 13 6 7 1028.8 - 0.0
21/08:40am 11.3 7.8 3.5 58 3.6 SE 11 13 6 7 1028.6 - 0.0
21/08:30am 11.0 8.3 3.8 61 3.3 ESE 7 9 4 5 1028.6 - 0.0
21/08:20am 10.6 7.5 3.7 62 3.2 ESE 9 9 5 5 1028.5 - 0.0
21/08:10am 10.1 7.0 3.4 63 3.1 ESE 9 11 5 6 1028.5 - 0.0
21/08:00am 9.8 6.2 3.1 63 3.0 SE 11 13 6 7 1028.4 - 0.0
21/07:50am 9.7 6.1 3.2 64 2.9 SE 11 13 6 7 1028.3 - 0.0
21/07:40am 9.5 6.4 3.4 65 2.8 SE 9 11 5 6 1028.2 - 0.0
21/07:30am 9.5 6.4 3.4 65 2.8 SE 9 11 5 6 1028.0 - 0.0
21/07:20am 9.5 6.7 3.3 65 2.8 SE 7 11 4 6 1027.9 - 0.0
21/07:10am 9.4 5.8 2.9 64 2.9 SE 11 13 6 7 1027.8 - 0.0
21/07:00am 9.1 5.1 2.9 65 2.8 SE 13 13 7 7 1027.6 - 0.0
21/06:50am 9.0 5.0 3.1 66 2.6 SSE 13 15 7 8 1027.4 - 0.0
21/06:40am 8.7 4.7 2.8 66 2.6 SSE 13 13 7 7 1027.3 - 0.0
21/06:30am 8.5 4.9 2.7 67 2.6 SSE 11 11 6 6 1027.2 - 0.0
21/06:20am 8.0 4.3 2.5 68 2.4 SSE 11 11 6 6 1027.0 - 0.0
21/06:10am 7.4 3.8 2.9 73 2.0 SE 11 13 6 7 1027.0 - 0.0
21/06:00am 7.8 3.8 2.9 71 2.2 SE 13 15 7 8 1026.8 - 0.0
21/05:50am 8.1 4.1 2.8 69 2.3 SE 13 13 7 7 1026.8 - 0.0
21/05:40am 8.3 4.7 2.8 68 2.4 SE 11 11 6 6 1026.8 - 0.0
21/05:30am 8.4 4.8 2.7 67 2.5 SSE 11 11 6 6 1026.7 - 0.0
21/05:20am 8.3 4.3 2.7 68 2.5 SSE 13 17 7 9 1026.7 - 0.0
21/05:10am 8.1 3.3 2.8 69 2.3 SE 17 17 9 9 1026.6 - 0.0
21/05:00am 7.9 2.8 2.8 70 2.2 SE 19 19 10 10 1026.6 - 0.0
21/04:50am 8.4 3.3 2.9 68 2.4 SE 19 20 10 11 1026.5 - 0.0
21/04:40am 8.4 3.6 2.7 67 2.5 SSE 17 17 9 9 1026.5 - 0.0
21/04:30am 8.5 3.7 2.8 67 2.5 SSE 17 19 9 10 1026.5 - 0.0
21/04:20am 8.6 3.3 2.8 67 2.6 SSE 20 20 11 11 1026.4 - 0.0
21/04:10am 8.6 3.3 2.8 67 2.6 SSE 20 20 11 11 1026.4 - 0.0
21/04:00am 8.6 3.2 2.7 66 2.6 SSE 20 20 11 11 1026.3 - 0.0
21/03:50am 8.5 3.2 2.8 67 2.5 SSE 20 22 11 12 1026.4 - 0.0
21/03:40am 8.5 2.8 2.8 67 2.5 SSE 22 24 12 13 1026.4 - 0.0
21/03:30am 8.5 2.8 2.7 67 2.6 SSE 22 24 12 13 1026.5 - 0.0
21/03:20am 8.5 3.2 2.8 67 2.5 SSE 20 22 11 12 1026.5 - 0.0
21/03:10am 8.7 3.0 2.7 66 2.7 SSE 22 22 12 12 1026.5 - 0.0
21/03:00am 8.7 2.6 2.6 65 2.7 SSE 24 26 13 14 1026.5 - 0.0
21/02:50am 8.8 2.7 2.6 65 2.7 SSE 24 26 13 14 1026.5 - 0.0
21/02:40am 9.0 2.9 2.7 64 2.8 SSE 24 24 13 13 1026.5 - 0.0
21/02:30am 8.9 2.8 2.7 65 2.8 SSE 24 24 13 13 1026.5 - 0.0
21/02:20am 8.8 2.7 2.7 65 2.7 SSE 24 24 13 13 1026.5 - 0.0
21/02:10am 8.8 2.7 2.8 66 2.7 SSE 24 26 13 14 1026.7 - 0.0
21/02:00am 8.9 2.8 2.8 65 2.7 SSE 24 26 13 14 1026.7 - 0.0
21/01:50am 9.1 3.0 2.7 64 2.8 SSE 24 26 13 14 1026.7 - 0.0
21/01:40am 9.2 3.1 2.8 64 2.9 SSE 24 26 13 14 1026.9 - 0.0
21/01:30am 9.0 2.5 2.7 64 2.8 SSE 26 28 14 15 1026.9 - 0.0
21/01:20am 8.9 2.4 2.8 65 2.7 SSE 26 28 14 15 1026.9 - 0.0
21/01:10am 9.1 1.8 2.6 64 2.9 SE 30 32 16 17 1026.7 - 0.0
21/01:00am 9.2 2.3 2.8 64 2.9 SE 28 30 15 16 1026.8 - 0.0
21/12:50am 9.5 1.9 2.6 62 3.1 SE 32 33 17 18 1026.8 - 0.0
21/12:40am 9.6 1.7 2.5 61 3.2 SE 33 35 18 19 1026.5 - 0.0
21/12:30am 9.5 1.9 2.8 63 3.0 SSE 32 32 17 17 1026.7 - 0.0
21/12:20am 9.6 2.4 2.8 62 3.0 SSE 30 30 16 16 1026.7 - 0.0
21/12:10am 9.8 3.0 3.0 62 3.1 SSE 28 30 15 16 1026.7 - 0.0
21/12:00am 9.9 3.5 3.0 62 3.1 SSE 26 26 14 14 1026.6 - 0.0
 
Date/Time
EDT
Temp
°C
App
Temp
°C
Dew
Point
°C
Rel
Hum
%
Delta-T
°C
Wind Press
QNH
hPa
Press
MSL
hPa
Rain since
9am
mm
Dir  Spd
km/h
Gust
km/h
Spd
kts
Gust
kts
20/11:50pm 9.9 3.5 3.0 62 3.1 SSE 26 28 14 15 1026.7 - 0.0
20/11:40pm 9.9 3.5 3.1 62 3.1 SE 26 30 14 16 1026.6 - 0.0
20/11:30pm 10.3 2.7 3.0 60 3.3 SE 32 33 17 18 1026.4 - 0.0
20/11:20pm 10.5 3.7 3.1 60 3.4 SE 28 33 15 18 1026.2 - 0.0
20/11:10pm 10.6 4.2 3.0 59 3.4 SSE 26 28 14 15 1026.3 - 0.0
20/11:00pm 10.4 4.0 3.3 61 3.2 SSE 26 28 14 15 1026.3 - 0.0
20/10:50pm 10.7 4.4 3.6 61 3.3 SSE 26 28 14 15 1026.3 - 0.0
20/10:40pm 11.7 7.1 3.7 58 3.7 SSE 17 22 9 12 1026.3 - 0.0
20/10:30pm 12.5 9.0 3.7 55 4.1 S 11 15 6 8 1026.3 - 0.0
20/10:20pm 12.7 10.5 3.4 53 4.3 S 4 6 2 3 1026.4 - 0.0
20/10:10pm 12.7 10.9 3.4 53 4.3 SW 2 4 1 2 1026.3 - 0.0
20/10:00pm 12.7 10.9 3.4 53 4.3 W 2 6 1 3 1026.1 - 0.0
20/09:50pm 12.7 9.9 3.4 53 4.3 W 7 9 4 5 1026.0 - 0.0
20/09:40pm 12.8 9.3 3.4 53 4.4 W 11 13 6 7 1025.9 - 0.0
20/09:30pm 12.7 8.8 3.3 52 4.4 W 13 15 7 8 1025.7 - 0.0
20/09:20pm 12.5 9.4 3.4 54 4.2 WNW 9 15 5 8 1025.5 - 0.0
20/09:10pm 12.7 9.6 3.4 53 4.3 W 9 13 5 7 1025.5 - 0.0
20/09:00pm 12.9 9.7 3.3 52 4.5 SW 9 13 5 7 1025.3 - 0.0
20/08:50pm 13.1 8.1 3.5 52 4.5 W 19 30 10 16 1025.3 - 0.0
20/08:40pm 13.3 6.2 3.3 50 4.7 W 30 33 16 18 1024.9 - 0.0
20/08:30pm 13.4 5.9 3.3 50 4.7 W 32 37 17 20 1024.7 - 0.0
20/08:20pm 13.5 5.8 3.3 50 4.8 WSW 33 39 18 21 1024.4 - 0.0
20/08:10pm 13.4 6.2 3.1 49 4.8 W 30 35 16 19 1024.1 - 0.0
20/08:00pm 13.6 6.4 3.1 49 4.9 W 30 33 16 18 1024.2 - 0.0
20/07:50pm 13.8 6.2 3.0 48 5.0 W 32 35 17 19 1024.0 - 0.0
20/07:40pm 13.9 7.4 2.9 47 5.1 W 26 28 14 15 1023.9 - 0.0
20/07:30pm 14.0 7.5 2.9 47 5.2 W 26 28 14 15 1023.8 - 0.0
20/07:20pm 14.3 7.5 3.0 46 5.3 W 28 32 15 17 1023.5 - 0.0
20/07:10pm 14.6 8.2 3.1 46 5.4 W 26 32 14 17 1023.4 - 0.0
20/07:00pm 14.7 6.9 3.1 45 5.5 W 33 35 18 19 1023.2 - 0.0
20/06:50pm 15.0 7.2 2.8 44 5.7 W 33 35 18 19 1023.1 - 0.0
20/06:40pm 15.4 7.2 2.8 42 5.9 WSW 35 39 19 21 1023.1 - 0.0
20/06:30pm 15.6 7.0 2.7 42 6.1 WSW 37 41 20 22 1022.9 - 0.0
20/06:20pm 15.8 7.6 2.7 41 6.2 WSW 35 37 19 20 1022.8 - 0.0
20/06:10pm 15.8 7.2 2.6 41 6.2 W 37 39 20 21 1022.8 - 0.0
20/06:00pm 16.0 8.2 2.8 41 6.2 W 33 35 18 19 1022.6 - 0.0
20/05:50pm 16.2 8.6 2.9 41 6.3 W 32 35 17 19 1022.6 - 0.0
20/05:40pm 16.2 8.6 2.7 40 6.4 W 32 35 17 19 1022.5 - 0.0
20/05:30pm 16.1 7.9 2.6 40 6.3 W 35 37 19 20 1022.4 - 0.0
20/05:20pm 16.4 8.2 2.5 39 6.5 W 35 39 19 21 1022.3 - 0.0
20/05:10pm 16.0 8.1 2.2 39 6.4 W 33 35 18 19 1022.2 - 0.0
20/05:00pm 16.1 8.2 2.3 39 6.4 W 33 35 18 19 1022.1 - 0.0
20/04:50pm 16.1 8.1 1.9 38 6.6 W 33 37 18 20 1022.0 - 0.0
20/04:40pm 16.9 9.0 2.2 37 6.9 W 33 39 18 21 1022.1 - 0.0
20/04:30pm 16.6 8.3 2.2 38 6.7 W 35 39 19 21 1022.0 - 0.0
20/04:20pm 16.6 8.3 2.3 38 6.7 W 35 39 19 21 1021.7 - 0.0
20/04:10pm 16.2 7.2 2.2 39 6.5 W 39 43 21 23 1021.9 - 0.0
20/04:00pm 16.1 7.4 2.2 39 6.5 W 37 39 20 21 1021.8 - 0.0
20/03:50pm 16.4 8.1 2.0 38 6.7 W 35 39 19 21 1021.8 - 0.0
20/03:40pm 16.6 8.6 1.7 36 6.9 W 33 37 18 20 1022.1 - 0.0
20/03:30pm 16.3 8.3 1.7 37 6.7 WNW 33 41 18 22 1021.8 - 0.0
20/03:20pm 16.5 8.5 1.6 36 6.9 W 33 37 18 20 1022.0 - 0.0
20/03:10pm 16.3 8.3 1.5 36 6.8 WNW 33 37 18 20 1022.2 - 0.0
20/03:00pm 16.2 7.7 1.0 35 6.9 WNW 35 39 19 21 1022.1 - 0.0
20/02:50pm 16.5 9.0 1.4 36 6.9 WNW 30 35 16 19 1022.2 - 0.0
20/02:40pm 16.7 9.6 1.6 36 7.0 W 28 30 15 16 1022.3 - 0.0
20/02:30pm 16.2 9.4 1.0 35 6.9 W 26 32 14 17 1022.4 - 0.0
20/02:20pm 16.6 9.8 0.8 34 7.2 WNW 26 33 14 18 1022.4 - 0.0
20/02:10pm 16.3 8.7 0.7 34 7.1 WNW 30 33 16 18 1022.5 - 0.0
20/02:00pm 15.6 8.1 1.1 37 6.6 WNW 30 32 16 17 1022.4 - 0.0
20/01:50pm 16.0 9.1 0.4 34 7.0 WNW 26 32 14 17 1022.4 - 0.0
20/01:40pm 15.9 10.2 0.7 35 6.9 WNW 20 26 11 14 1022.6 - 0.0
20/01:30pm 15.3 8.9 1.2 38 6.4 WNW 24 28 13 15 1022.5 - 0.0
20/01:20pm 15.1 9.2 1.5 39 6.2 NW 22 30 12 16 1022.4 - 0.0
20/01:10pm 14.2 7.0 0.5 39 6.1 WNW 28 30 15 16 1022.6 - 0.0
20/01:00pm 14.4 8.0 1.0 40 6.0 WNW 24 28 13 15 1022.8 - 0.0
20/12:50pm 13.8 6.1 0.1 39 6.0 WNW 30 35 16 19 1023.1 - 0.0
20/12:40pm 13.8 6.9 0.1 39 6.0 NW 26 33 14 18 1023.1 - 0.0
20/12:30pm 13.7 7.5 -0.3 38 6.1 NW 22 28 12 15 1023.3 - 0.0
20/12:20pm 13.3 7.5 -0.4 39 5.9 WNW 20 26 11 14 1023.3 - 0.0
20/12:10pm 13.3 8.7 -1.3 36 6.2 WNW 13 22 7 12 1023.5 - 0.0
20/12:00pm 13.1 7.7 -1.7 36 6.2 WNW 17 20 9 11 1023.5 - 0.0
20/11:50am 12.9 6.8 -2.0 35 6.2 W 20 26 11 14 1023.6 - 0.0
20/11:40am 12.9 6.9 -1.2 37 5.9 NW 20 28 11 15 1023.5 - 0.0
20/11:30am 12.5 6.1 -1.8 37 5.9 NNW 22 30 12 16 1023.5 - 0.0
20/11:20am 12.3 6.5 -1.2 39 5.7 NNW 19 20 10 11 1023.7 - 0.0
20/11:10am 12.1 6.2 -1.9 37 5.8 NW 19 24 10 13 1023.7 - 0.0
20/11:00am 11.8 5.7 -2.1 38 5.7 WNW 20 24 11 13 1023.9 - 0.0
20/10:50am 11.7 5.7 -1.6 39 5.5 NW 20 22 11 12 1023.9 - 0.0
20/10:40am 11.3 5.9 -1.3 41 5.2 NW 17 22 9 12 1023.9 - 0.0
20/10:30am 11.3 6.5 -2.3 38 5.5 W 13 19 7 10 1024.2 - 0.0
20/10:20am 11.0 5.0 -2.9 37 5.5 WSW 19 24 10 13 1024.3 - 0.0
20/10:10am 10.9 5.4 -2.0 40 5.2 W 17 20 9 11 1024.4 - 0.0
20/10:00am 10.7 5.2 -2.3 40 5.2 W 17 24 9 13 1024.4 - 0.0
20/09:50am 10.1 5.1 -1.1 45 4.6 WNW 15 20 8 11 1024.3 - 0.0
20/09:40am 9.8 5.1 -1.8 44 4.7 WNW 13 20 7 11 1024.2 - 0.0
20/09:30am 9.4 4.8 -0.8 49 4.2 WNW 13 19 7 10 1024.1 - 0.0
20/09:20am 9.2 5.4 -0.8 49 4.1 NW 9 13 5 7 1024.0 - 0.0
20/09:10am 8.7 4.9 -0.7 51 3.8 NW 9 13 5 7 1024.1 - 0.0
20/09:00am 8.3 4.1 -0.6 53 3.6 NW 11 15 6 8 1023.9 - 0.0
20/08:50am 7.8 2.9 -0.8 54 3.5 NNW 15 15 8 8 1023.7 - 0.0
20/08:40am 7.6 2.7 -0.6 56 3.3 NNW 15 17 8 9 1023.7 - 0.0
20/08:30am 7.1 1.8 -0.5 58 3.1 N 17 19 9 10 1023.3 - 0.0
20/08:20am 6.9 2.5 0.1 62 2.8 NNW 13 15 7 8 1023.3 - 0.0

Latest Capital City Observations: Canberra | Sydney | Melbourne | Brisbane | Adelaide | Perth | Hobart | Darwin

Other formats

Comma delimited format used in spreadsheet applications
http://www.bom.gov.au/fwo/IDN60903/IDN60903.99763.axf

JavaScript Object Notation format (JSON) in row-major order
http://www.bom.gov.au/fwo/IDN60903/IDN60903.99763.json

Data quality

Most of these data are generated automatically and are frequently updated. Quality checks on data are not normally performed. It is possible for incorrect values to appear. Refer to information at About Latest Weather Observations and please check the disclaimer before using these data.